Rina Amoretti — IBRR — position and weather

sailwx.info

Track history (hours):
 
Tides and Currents Weather Stations Pressure Air Temp Water Temp Dewpoint Dewpoint Depression Visibility Wind Speed Wind Dir Waves Ship Positions

Rina Amoretti

Last reported at 2014-Sep-29 22:29 UTC. Time now 2014-Oct-01 10:29 UTC.
Position N 38°12' E 014°07'.

Length 120 m; draft 6.5 m.

Type: Tanker. MMSI: 247197000.

Date/timePositionNaut miles runAvg speedWind from/ knotsBaromVisibWave heightAir tempDewpointWater temp
2014-Sep-29 22:29N 38°12' E 014°07'1313.8
2014-Sep-29 21:33N 38°11' E 013°51'1413.8
2014-Sep-29 20:34N 38°10' E 013°34'7 6.9
2014-Sep-29 19:33N 38°06' E 013°26'0 0.0
2014-Sep-29 18:33N 38°06' E 013°26'0 0.0
2014-Sep-29 17:33N 38°06' E 013°26'0 0.0
2014-Sep-29 16:33N 38°06' E 013°26'0 0.0
2014-Sep-29 15:33N 38°06' E 013°26'0 0.0
2014-Sep-29 14:33N 38°06' E 013°26'0 0.0
2014-Sep-29 13:33N 38°06' E 013°26'0 0.0
2014-Sep-29 12:32N 38°06' E 013°26'0 0.0
2014-Sep-29 11:32N 38°06' E 013°26'0 0.0
2014-Sep-29 10:32N 38°06' E 013°26'0 0.0
2014-Sep-29 09:32N 38°06' E 013°26'0 0.0
2014-Sep-29 08:32N 38°06' E 013°26'2 1.6
2014-Sep-29 07:33N 38°07' E 013°28'1 0.0
2014-Sep-28 16:23N 38°07' E 013°29'0 0.0
2014-Sep-26 18:31N 38°07' E 013°29'0 0.0
2014-Sep-26 17:31N 38°07' E 013°29'0 0.0
2014-Sep-26 16:31N 38°07' E 013°29'0 0.0
2014-Sep-26 15:31N 38°07' E 013°29'0 0.0
2014-Sep-26 14:31N 38°07' E 013°29'0 0.0
2014-Sep-26 13:31N 38°07' E 013°29'0 0.0
2014-Sep-26 12:31N 38°07' E 013°29'0 0.0
2014-Sep-26 11:31N 38°07' E 013°29'0 0.0
2014-Sep-26 10:31N 38°07' E 013°29'1 1.4
2014-Sep-26 09:33N 38°06' E 013°27'0 0.5
2014-Sep-26 08:33N 38°06' E 013°28'1 0.8
2014-Sep-26 07:31N 38°07' E 013°29'0 0.0
2014-Sep-26 06:31N 38°07' E 013°29'0 0.0
2014-Sep-26 05:31N 38°07' E 013°29'0 0.0
2014-Sep-26 04:31N 38°07' E 013°29'0 0.0
2014-Sep-26 03:31N 38°07' E 013°29'0 0.0
2014-Sep-26 02:31N 38°07' E 013°29'0 0.1
2014-Sep-26 01:34N 38°07' E 013°29'1010.5
2014-Sep-26 00:33N 38°10' E 013°41'1313.4
2014-Sep-25 23:33N 38°12' E 013°58'1513.3
2014-Sep-25 22:26N 38°13' E 014°17'  
2014-Sep-23 05:32N 38°16' E 014°43'1212.4
2014-Sep-23 04:32N 38°14' E 014°28'1312.8
2014-Sep-23 03:33N 38°13' E 014°12'1313.4
2014-Sep-23 02:33N 38°11' E 013°55'1413.6
2014-Sep-23 01:33N 38°10' E 013°37'10 9.2
2014-Sep-23 00:31N 38°06' E 013°26'0 0.1
2014-Sep-22 23:31N 38°06' E 013°26'0 0.0
2014-Sep-22 22:31N 38°06' E 013°26'0 0.0
2014-Sep-22 21:31N 38°06' E 013°26'0 0.0
2014-Sep-22 20:31N 38°06' E 013°26'0 0.0
2014-Sep-22 19:28N 38°06' E 013°26'0 0.0
2014-Sep-22 18:31N 38°06' E 013°26'0 0.0
2014-Sep-22 17:31N 38°06' E 013°26'0 0.0
2014-Sep-22 16:31N 38°06' E 013°26'0 0.0
2014-Sep-22 15:31N 38°06' E 013°26'0 0.0
2014-Sep-22 14:31N 38°06' E 013°26'0 0.0
2014-Sep-22 13:31N 38°06' E 013°26'0 0.0
2014-Sep-22 12:31N 38°06' E 013°26'0 0.0
2014-Sep-22 11:31N 38°06' E 013°26'0 0.0
2014-Sep-22 10:31N 38°06' E 013°26'1 0.6
2014-Sep-22 09:33N 38°06' E 013°27'1 1.3
2014-Sep-22 08:33N 38°07' E 013°28'1111.3
2014-Sep-22 07:33N 38°10' E 013°42'1313.4
2014-Sep-22 06:33N 38°12' E 013°59'1513.6
2014-Sep-22 05:29N 38°13' E 014°18'1314.0
2014-Sep-22 04:33N 38°15' E 014°34'2813.8
2014-Sep-22 02:33N 38°18' E 015°09'  
Track history (hours):
 
Tides and Currents Weather Stations Pressure Air Temp Water Temp Dewpoint Dewpoint Depression Visibility Wind Speed Wind Dir Waves Ship Positions

Rina Amoretti

Last reported at 2014-Sep-29 22:29 UTC. Time now 2014-Oct-01 10:29 UTC.
Position N 38°12' E 014°07'.

Length 120 m; draft 6.5 m.

Type: Tanker. MMSI: 247197000.

Date/timePositionNaut miles runAvg speedWind from/ knotsBaromVisibWave heightAir tempDewpointWater temp
2014-Sep-29 22:29N 38°12' E 014°07'1313.8
2014-Sep-29 21:33N 38°11' E 013°51'1413.8
2014-Sep-29 20:34N 38°10' E 013°34'7 6.9
2014-Sep-29 19:33N 38°06' E 013°26'0 0.0
2014-Sep-29 18:33N 38°06' E 013°26'0 0.0
2014-Sep-29 17:33N 38°06' E 013°26'0 0.0
2014-Sep-29 16:33N 38°06' E 013°26'0 0.0
2014-Sep-29 15:33N 38°06' E 013°26'0 0.0
2014-Sep-29 14:33N 38°06' E 013°26'0 0.0
2014-Sep-29 13:33N 38°06' E 013°26'0 0.0
2014-Sep-29 12:32N 38°06' E 013°26'0 0.0
2014-Sep-29 11:32N 38°06' E 013°26'0 0.0
2014-Sep-29 10:32N 38°06' E 013°26'0 0.0
2014-Sep-29 09:32N 38°06' E 013°26'0 0.0
2014-Sep-29 08:32N 38°06' E 013°26'2 1.6
2014-Sep-29 07:33N 38°07' E 013°28'1 0.0
2014-Sep-28 16:23N 38°07' E 013°29'0 0.0
2014-Sep-26 18:31N 38°07' E 013°29'0 0.0
2014-Sep-26 17:31N 38°07' E 013°29'0 0.0
2014-Sep-26 16:31N 38°07' E 013°29'0 0.0
2014-Sep-26 15:31N 38°07' E 013°29'0 0.0
2014-Sep-26 14:31N 38°07' E 013°29'0 0.0
2014-Sep-26 13:31N 38°07' E 013°29'0 0.0
2014-Sep-26 12:31N 38°07' E 013°29'0 0.0
2014-Sep-26 11:31N 38°07' E 013°29'0 0.0
2014-Sep-26 10:31N 38°07' E 013°29'1 1.4
2014-Sep-26 09:33N 38°06' E 013°27'0 0.5
2014-Sep-26 08:33N 38°06' E 013°28'1 0.8
2014-Sep-26 07:31N 38°07' E 013°29'0 0.0
2014-Sep-26 06:31N 38°07' E 013°29'0 0.0
2014-Sep-26 05:31N 38°07' E 013°29'0 0.0
2014-Sep-26 04:31N 38°07' E 013°29'0 0.0
2014-Sep-26 03:31N 38°07' E 013°29'0 0.0
2014-Sep-26 02:31N 38°07' E 013°29'0 0.1
2014-Sep-26 01:34N 38°07' E 013°29'1010.5
2014-Sep-26 00:33N 38°10' E 013°41'1313.4
2014-Sep-25 23:33N 38°12' E 013°58'1513.3
2014-Sep-25 22:26N 38°13' E 014°17'  
2014-Sep-23 05:32N 38°16' E 014°43'1212.4
2014-Sep-23 04:32N 38°14' E 014°28'1312.8
2014-Sep-23 03:33N 38°13' E 014°12'1313.4
2014-Sep-23 02:33N 38°11' E 013°55'1413.6
2014-Sep-23 01:33N 38°10' E 013°37'10 9.2
2014-Sep-23 00:31N 38°06' E 013°26'0 0.1
2014-Sep-22 23:31N 38°06' E 013°26'0 0.0
2014-Sep-22 22:31N 38°06' E 013°26'0 0.0
2014-Sep-22 21:31N 38°06' E 013°26'0 0.0
2014-Sep-22 20:31N 38°06' E 013°26'0 0.0
2014-Sep-22 19:28N 38°06' E 013°26'0 0.0
2014-Sep-22 18:31N 38°06' E 013°26'0 0.0
2014-Sep-22 17:31N 38°06' E 013°26'0 0.0
2014-Sep-22 16:31N 38°06' E 013°26'0 0.0
2014-Sep-22 15:31N 38°06' E 013°26'0 0.0
2014-Sep-22 14:31N 38°06' E 013°26'0 0.0
2014-Sep-22 13:31N 38°06' E 013°26'0 0.0
2014-Sep-22 12:31N 38°06' E 013°26'0 0.0
2014-Sep-22 11:31N 38°06' E 013°26'0 0.0
2014-Sep-22 10:31N 38°06' E 013°26'1 0.6
2014-Sep-22 09:33N 38°06' E 013°27'1 1.3
2014-Sep-22 08:33N 38°07' E 013°28'1111.3
2014-Sep-22 07:33N 38°10' E 013°42'1313.4
2014-Sep-22 06:33N 38°12' E 013°59'1513.6
2014-Sep-22 05:29N 38°13' E 014°18'1314.0
2014-Sep-22 04:33N 38°15' E 014°34'2813.8
2014-Sep-22 02:33N 38°18' E 015°09'  

Dump ship's entire track history